sensor_id;sensor_type;location;lat;lon;timestamp;temperature;humidity
17483;DHT22;8858;52.308;20.994;2023-04-25T00:00:51;14.70;99.90
17483;DHT22;8858;52.308;20.994;2023-04-25T00:03:20;14.60;99.90
17483;DHT22;8858;52.308;20.994;2023-04-25T00:05:52;14.50;99.90
17483;DHT22;8858;52.308;20.994;2023-04-25T00:08:26;14.40;99.90
17483;DHT22;8858;52.308;20.994;2023-04-25T00:10:54;14.00;99.90
17483;DHT22;8858;52.308;20.994;2023-04-25T00:13:23;13.80;99.90
17483;DHT22;8858;52.308;20.994;2023-04-25T00:15:52;13.60;99.90
17483;DHT22;8858;52.308;20.994;2023-04-25T00:18:21;13.60;99.90
17483;DHT22;8858;52.308;20.994;2023-04-25T00:20:49;13.60;99.90
17483;DHT22;8858;52.308;20.994;2023-04-25T00:23:18;13.60;99.90
17483;DHT22;8858;52.308;20.994;2023-04-25T00:25:49;13.70;99.90
17483;DHT22;8858;52.308;20.994;2023-04-25T00:28:17;13.70;99.90
17483;DHT22;8858;52.308;20.994;2023-04-25T00:30:48;13.70;99.90
17483;DHT22;8858;52.308;20.994;2023-04-25T00:33:16;13.60;99.90
17483;DHT22;8858;52.308;20.994;2023-04-25T00:35:45;13.50;99.90
17483;DHT22;8858;52.308;20.994;2023-04-25T00:38:13;13.60;99.90
17483;DHT22;8858;52.308;20.994;2023-04-25T00:40:42;13.70;99.90
17483;DHT22;8858;52.308;20.994;2023-04-25T00:43:12;13.90;99.90
17483;DHT22;8858;52.308;20.994;2023-04-25T00:45:43;14.00;99.90
17483;DHT22;8858;52.308;20.994;2023-04-25T00:48:12;14.00;99.90
17483;DHT22;8858;52.308;20.994;2023-04-25T00:50:52;14.20;99.90
17483;DHT22;8858;52.308;20.994;2023-04-25T00:53:21;14.30;99.90
17483;DHT22;8858;52.308;20.994;2023-04-25T00:55:50;14.20;99.90
17483;DHT22;8858;52.308;20.994;2023-04-25T00:58:22;14.30;99.90
17483;DHT22;8858;52.308;20.994;2023-04-25T01:00:52;14.40;99.90
17483;DHT22;8858;52.308;20.994;2023-04-25T01:03:21;14.40;99.90
17483;DHT22;8858;52.308;20.994;2023-04-25T01:05:51;14.50;99.90
17483;DHT22;8858;52.308;20.994;2023-04-25T01:08:22;14.40;99.90
17483;DHT22;8858;52.308;20.994;2023-04-25T01:10:52;14.20;99.90
17483;DHT22;8858;52.308;20.994;2023-04-25T01:13:21;14.30;99.90
17483;DHT22;8858;52.308;20.994;2023-04-25T01:15:50;14.10;99.90
17483;DHT22;8858;52.308;20.994;2023-04-25T01:18:19;14.20;99.90
17483;DHT22;8858;52.308;20.994;2023-04-25T01:20:50;14.40;99.90
17483;DHT22;8858;52.308;20.994;2023-04-25T01:23:22;14.50;99.90
17483;DHT22;8858;52.308;20.994;2023-04-25T01:25:51;14.40;99.90
17483;DHT22;8858;52.308;20.994;2023-04-25T01:28:20;14.30;99.90
17483;DHT22;8858;52.308;20.994;2023-04-25T01:30:49;14.40;99.90
17483;DHT22;8858;52.308;20.994;2023-04-25T01:33:19;14.50;99.90
17483;DHT22;8858;52.308;20.994;2023-04-25T01:35:51;14.60;99.90
17483;DHT22;8858;52.308;20.994;2023-04-25T01:38:21;13.90;99.90
17483;DHT22;8858;52.308;20.994;2023-04-25T01:40:51;13.60;99.90
17483;DHT22;8858;52.308;20.994;2023-04-25T01:43:21;13.70;99.90
17483;DHT22;8858;52.308;20.994;2023-04-25T01:45:50;13.40;99.90
17483;DHT22;8858;52.308;20.994;2023-04-25T01:48:21;13.50;99.90
17483;DHT22;8858;52.308;20.994;2023-04-25T01:50:50;13.60;99.90
17483;DHT22;8858;52.308;20.994;2023-04-25T01:53:18;13.30;99.90
17483;DHT22;8858;52.308;20.994;2023-04-25T01:55:48;13.20;99.90
17483;DHT22;8858;52.308;20.994;2023-04-25T01:58:19;13.00;99.90
17483;DHT22;8858;52.308;20.994;2023-04-25T02:01:02;12.90;99.90
17483;DHT22;8858;52.308;20.994;2023-04-25T02:03:38;12.80;99.90
17483;DHT22;8858;52.308;20.994;2023-04-25T02:06:16;12.70;99.90
17483;DHT22;8858;52.308;20.994;2023-04-25T02:08:47;12.70;99.90
17483;DHT22;8858;52.308;20.994;2023-04-25T02:11:17;12.70;99.90
17483;DHT22;8858;52.308;20.994;2023-04-25T02:13:54;12.70;99.90
17483;DHT22;8858;52.308;20.994;2023-04-25T02:16:35;12.70;99.90
17483;DHT22;8858;52.308;20.994;2023-04-25T02:19:06;12.70;99.90
17483;DHT22;8858;52.308;20.994;2023-04-25T02:21:35;12.60;99.90
17483;DHT22;8858;52.308;20.994;2023-04-25T02:24:04;12.60;99.90
17483;DHT22;8858;52.308;20.994;2023-04-25T02:26:34;12.50;99.90
17483;DHT22;8858;52.308;20.994;2023-04-25T02:29:07;12.50;99.90
17483;DHT22;8858;52.308;20.994;2023-04-25T02:31:35;12.40;99.90
17483;DHT22;8858;52.308;20.994;2023-04-25T02:34:04;12.30;99.90
17483;DHT22;8858;52.308;20.994;2023-04-25T02:36:35;12.30;99.90
17483;DHT22;8858;52.308;20.994;2023-04-25T02:39:08;12.30;99.90
17483;DHT22;8858;52.308;20.994;2023-04-25T02:41:38;12.20;99.90
17483;DHT22;8858;52.308;20.994;2023-04-25T02:44:06;12.30;99.90
17483;DHT22;8858;52.308;20.994;2023-04-25T02:46:37;12.20;99.90
17483;DHT22;8858;52.308;20.994;2023-04-25T02:49:31;12.20;99.90
17483;DHT22;8858;52.308;20.994;2023-04-25T02:51:59;12.20;99.90
17483;DHT22;8858;52.308;20.994;2023-04-25T02:54:27;12.20;99.90
17483;DHT22;8858;52.308;20.994;2023-04-25T02:56:58;12.10;99.90
17483;DHT22;8858;52.308;20.994;2023-04-25T02:59:34;12.10;99.90
17483;DHT22;8858;52.308;20.994;2023-04-25T03:02:03;11.90;99.90
17483;DHT22;8858;52.308;20.994;2023-04-25T03:04:31;11.90;99.90
17483;DHT22;8858;52.308;20.994;2023-04-25T03:07:03;11.80;99.90
17483;DHT22;8858;52.308;20.994;2023-04-25T03:09:32;11.90;99.90
17483;DHT22;8858;52.308;20.994;2023-04-25T03:12:01;11.80;99.90
17483;DHT22;8858;52.308;20.994;2023-04-25T03:14:31;11.90;99.90
17483;DHT22;8858;52.308;20.994;2023-04-25T03:16:59;11.80;99.90
17483;DHT22;8858;52.308;20.994;2023-04-25T03:19:27;11.80;99.90
17483;DHT22;8858;52.308;20.994;2023-04-25T03:21:56;11.70;99.90
17483;DHT22;8858;52.308;20.994;2023-04-25T03:24:25;11.80;99.90
17483;DHT22;8858;52.308;20.994;2023-04-25T03:26:53;11.70;99.90
17483;DHT22;8858;52.308;20.994;2023-04-25T03:29:23;11.80;99.90
17483;DHT22;8858;52.308;20.994;2023-04-25T03:31:59;11.70;99.90
17483;DHT22;8858;52.308;20.994;2023-04-25T03:34:27;11.70;99.90
17483;DHT22;8858;52.308;20.994;2023-04-25T03:36:55;11.80;99.90
17483;DHT22;8858;52.308;20.994;2023-04-25T03:39:24;11.80;99.90
17483;DHT22;8858;52.308;20.994;2023-04-25T03:41:52;11.70;99.90
17483;DHT22;8858;52.308;20.994;2023-04-25T03:44:20;11.80;99.90
17483;DHT22;8858;52.308;20.994;2023-04-25T03:46:50;11.80;99.90
17483;DHT22;8858;52.308;20.994;2023-04-25T03:49:23;11.80;99.90
17483;DHT22;8858;52.308;20.994;2023-04-25T03:51:59;11.90;99.90
17483;DHT22;8858;52.308;20.994;2023-04-25T03:54:35;11.70;99.90
17483;DHT22;8858;52.308;20.994;2023-04-25T03:57:10;11.80;99.90
17483;DHT22;8858;52.308;20.994;2023-04-25T03:59:39;11.80;99.90
17483;DHT22;8858;52.308;20.994;2023-04-25T04:02:11;11.80;99.90
17483;DHT22;8858;52.308;20.994;2023-04-25T04:04:40;11.70;99.90
17483;DHT22;8858;52.308;20.994;2023-04-25T04:07:12;11.80;99.90
17483;DHT22;8858;52.308;20.994;2023-04-25T04:09:44;11.80;99.90
17483;DHT22;8858;52.308;20.994;2023-04-25T04:12:17;11.90;99.90
17483;DHT22;8858;52.308;20.994;2023-04-25T04:14:46;11.80;99.90
17483;DHT22;8858;52.308;20.994;2023-04-25T04:17:15;11.80;99.90
17483;DHT22;8858;52.308;20.994;2023-04-25T04:19:44;11.80;99.90
17483;DHT22;8858;52.308;20.994;2023-04-25T04:22:15;11.80;99.90
17483;DHT22;8858;52.308;20.994;2023-04-25T04:24:47;11.80;99.90
17483;DHT22;8858;52.308;20.994;2023-04-25T04:27:21;11.80;99.90
17483;DHT22;8858;52.308;20.994;2023-04-25T04:30:06;11.90;99.90
17483;DHT22;8858;52.308;20.994;2023-04-25T04:32:53;11.90;99.90
17483;DHT22;8858;52.308;20.994;2023-04-25T04:35:22;11.90;99.90
17483;DHT22;8858;52.308;20.994;2023-04-25T04:37:51;11.80;99.90
17483;DHT22;8858;52.308;20.994;2023-04-25T04:40:21;11.80;99.90
17483;DHT22;8858;52.308;20.994;2023-04-25T04:43:05;11.90;99.90
17483;DHT22;8858;52.308;20.994;2023-04-25T04:45:55;11.90;99.90
17483;DHT22;8858;52.308;20.994;2023-04-25T04:48:36;12.00;99.90
17483;DHT22;8858;52.308;20.994;2023-04-25T04:51:19;12.10;99.90
17483;DHT22;8858;52.308;20.994;2023-04-25T04:54:04;12.10;99.90
17483;DHT22;8858;52.308;20.994;2023-04-25T04:56:48;12.10;99.90
17483;DHT22;8858;52.308;20.994;2023-04-25T04:59:34;12.10;99.90
17483;DHT22;8858;52.308;20.994;2023-04-25T05:02:17;12.00;99.90
17483;DHT22;8858;52.308;20.994;2023-04-25T05:05:00;11.90;99.90
17483;DHT22;8858;52.308;20.994;2023-04-25T05:07:40;12.00;99.90
17483;DHT22;8858;52.308;20.994;2023-04-25T05:10:26;11.90;99.90
17483;DHT22;8858;52.308;20.994;2023-04-25T05:13:05;11.90;99.90
17483;DHT22;8858;52.308;20.994;2023-04-25T05:15:45;11.90;99.90
17483;DHT22;8858;52.308;20.994;2023-04-25T05:18:22;11.90;99.90
17483;DHT22;8858;52.308;20.994;2023-04-25T05:21:05;11.80;99.90
17483;DHT22;8858;52.308;20.994;2023-04-25T05:23:41;11.70;99.90
17483;DHT22;8858;52.308;20.994;2023-04-25T05:26:22;11.70;99.90
17483;DHT22;8858;52.308;20.994;2023-04-25T05:29:06;11.70;99.90
17483;DHT22;8858;52.308;20.994;2023-04-25T05:31:52;11.80;99.90
17483;DHT22;8858;52.308;20.994;2023-04-25T05:34:20;11.70;99.90
17483;DHT22;8858;52.308;20.994;2023-04-25T05:36:57;11.70;99.90
17483;DHT22;8858;52.308;20.994;2023-04-25T05:39:25;11.70;99.90
17483;DHT22;8858;52.308;20.994;2023-04-25T05:42:07;11.70;99.90
17483;DHT22;8858;52.308;20.994;2023-04-25T05:44:52;11.70;99.90
17483;DHT22;8858;52.308;20.994;2023-04-25T05:47:30;11.60;99.90
17483;DHT22;8858;52.308;20.994;2023-04-25T05:50:05;11.60;99.90
17483;DHT22;8858;52.308;20.994;2023-04-25T05:52:54;11.70;99.90
17483;DHT22;8858;52.308;20.994;2023-04-25T05:55:31;11.70;99.90
17483;DHT22;8858;52.308;20.994;2023-04-25T05:58:06;11.70;99.90
17483;DHT22;8858;52.308;20.994;2023-04-25T06:00:37;11.70;99.90
17483;DHT22;8858;52.308;20.994;2023-04-25T06:03:05;11.70;99.90
17483;DHT22;8858;52.308;20.994;2023-04-25T06:05:37;11.70;99.90
17483;DHT22;8858;52.308;20.994;2023-04-25T06:08:08;11.60;99.90
17483;DHT22;8858;52.308;20.994;2023-04-25T06:10:37;11.70;99.90
17483;DHT22;8858;52.308;20.994;2023-04-25T06:13:06;11.80;99.90
17483;DHT22;8858;52.308;20.994;2023-04-25T06:15:36;11.80;99.90
17483;DHT22;8858;52.308;20.994;2023-04-25T06:18:04;11.90;99.90
17483;DHT22;8858;52.308;20.994;2023-04-25T06:20:33;11.70;99.90
17483;DHT22;8858;52.308;20.994;2023-04-25T06:23:02;11.70;99.90
17483;DHT22;8858;52.308;20.994;2023-04-25T06:25:43;11.50;99.90
17483;DHT22;8858;52.308;20.994;2023-04-25T06:28:12;11.60;99.90
17483;DHT22;8858;52.308;20.994;2023-04-25T06:30:43;11.50;99.90
17483;DHT22;8858;52.308;20.994;2023-04-25T06:33:16;11.50;99.90
17483;DHT22;8858;52.308;20.994;2023-04-25T06:35:48;11.40;99.90
17483;DHT22;8858;52.308;20.994;2023-04-25T06:38:21;11.30;99.90
17483;DHT22;8858;52.308;20.994;2023-04-25T06:40:52;11.30;99.90
17483;DHT22;8858;52.308;20.994;2023-04-25T06:43:28;11.20;99.90
17483;DHT22;8858;52.308;20.994;2023-04-25T06:46:12;11.10;99.90
17483;DHT22;8858;52.308;20.994;2023-04-25T06:48:44;10.90;99.90
17483;DHT22;8858;52.308;20.994;2023-04-25T06:51:13;10.90;99.90
17483;DHT22;8858;52.308;20.994;2023-04-25T06:53:43;10.90;99.90
17483;DHT22;8858;52.308;20.994;2023-04-25T06:56:24;10.80;99.90
17483;DHT22;8858;52.308;20.994;2023-04-25T06:59:00;10.80;99.90
17483;DHT22;8858;52.308;20.994;2023-04-25T07:01:34;10.70;99.90
17483;DHT22;8858;52.308;20.994;2023-04-25T07:04:07;10.80;99.90
17483;DHT22;8858;52.308;20.994;2023-04-25T07:06:45;10.80;99.90
17483;DHT22;8858;52.308;20.994;2023-04-25T07:09:17;10.80;99.90
17483;DHT22;8858;52.308;20.994;2023-04-25T07:11:50;10.90;99.90
17483;DHT22;8858;52.308;20.994;2023-04-25T07:14:18;10.80;99.90
17483;DHT22;8858;52.308;20.994;2023-04-25T07:16:47;10.90;99.90
17483;DHT22;8858;52.308;20.994;2023-04-25T07:19:16;10.80;99.90
17483;DHT22;8858;52.308;20.994;2023-04-25T07:21:44;10.80;99.90
17483;DHT22;8858;52.308;20.994;2023-04-25T07:24:17;10.80;99.90
17483;DHT22;8858;52.308;20.994;2023-04-25T07:26:46;10.80;99.90
17483;DHT22;8858;52.308;20.994;2023-04-25T07:29:27;10.80;99.90
17483;DHT22;8858;52.308;20.994;2023-04-25T07:31:58;10.90;99.90
17483;DHT22;8858;52.308;20.994;2023-04-25T07:34:27;10.80;99.90
17483;DHT22;8858;52.308;20.994;2023-04-25T07:36:57;10.80;99.90
17483;DHT22;8858;52.308;20.994;2023-04-25T07:39:34;10.80;99.90
17483;DHT22;8858;52.308;20.994;2023-04-25T07:42:07;11.00;99.90
17483;DHT22;8858;52.308;20.994;2023-04-25T07:44:40;11.00;99.90
17483;DHT22;8858;52.308;20.994;2023-04-25T07:47:12;11.10;99.90
17483;DHT22;8858;52.308;20.994;2023-04-25T07:49:41;11.10;99.90
17483;DHT22;8858;52.308;20.994;2023-04-25T07:52:09;11.10;99.90
17483;DHT22;8858;52.308;20.994;2023-04-25T07:54:41;11.20;99.90
17483;DHT22;8858;52.308;20.994;2023-04-25T07:57:15;11.30;99.90
17483;DHT22;8858;52.308;20.994;2023-04-25T07:59:48;11.20;99.90
17483;DHT22;8858;52.308;20.994;2023-04-25T08:02:17;11.10;99.90
17483;DHT22;8858;52.308;20.994;2023-04-25T08:04:45;11.20;99.90
17483;DHT22;8858;52.308;20.994;2023-04-25T08:07:17;11.10;99.90
17483;DHT22;8858;52.308;20.994;2023-04-25T08:09:51;11.00;99.90
17483;DHT22;8858;52.308;20.994;2023-04-25T08:12:24;11.00;99.90
17483;DHT22;8858;52.308;20.994;2023-04-25T08:14:54;10.90;99.90
17483;DHT22;8858;52.308;20.994;2023-04-25T08:17:25;10.80;99.90
17483;DHT22;8858;52.308;20.994;2023-04-25T08:19:53;10.90;99.90
17483;DHT22;8858;52.308;20.994;2023-04-25T08:22:26;10.90;99.90
17483;DHT22;8858;52.308;20.994;2023-04-25T08:25:10;10.80;99.90
17483;DHT22;8858;52.308;20.994;2023-04-25T08:27:39;10.80;99.90
17483;DHT22;8858;52.308;20.994;2023-04-25T08:30:10;10.80;99.90
17483;DHT22;8858;52.308;20.994;2023-04-25T08:32:43;10.90;99.90
17483;DHT22;8858;52.308;20.994;2023-04-25T08:35:30;10.90;99.90
17483;DHT22;8858;52.308;20.994;2023-04-25T08:38:00;11.00;99.90
17483;DHT22;8858;52.308;20.994;2023-04-25T08:40:37;10.80;99.90
17483;DHT22;8858;52.308;20.994;2023-04-25T08:43:13;10.90;99.90
17483;DHT22;8858;52.308;20.994;2023-04-25T08:45:44;10.80;99.90
17483;DHT22;8858;52.308;20.994;2023-04-25T08:48:24;10.80;99.90
17483;DHT22;8858;52.308;20.994;2023-04-25T08:50:56;10.80;99.90
17483;DHT22;8858;52.308;20.994;2023-04-25T08:53:27;10.90;99.90
17483;DHT22;8858;52.308;20.994;2023-04-25T08:56:03;10.90;99.90
17483;DHT22;8858;52.308;20.994;2023-04-25T08:58:35;10.90;99.90
17483;DHT22;8858;52.308;20.994;2023-04-25T09:01:06;10.90;99.90
17483;DHT22;8858;52.308;20.994;2023-04-25T09:03:43;11.00;99.90
17483;DHT22;8858;52.308;20.994;2023-04-25T09:06:14;11.00;99.90
17483;DHT22;8858;52.308;20.994;2023-04-25T09:08:43;10.90;99.90
17483;DHT22;8858;52.308;20.994;2023-04-25T09:11:12;11.00;99.90
17483;DHT22;8858;52.308;20.994;2023-04-25T09:13:41;10.90;99.90
17483;DHT22;8858;52.308;20.994;2023-04-25T09:16:22;10.80;99.90
17483;DHT22;8858;52.308;20.994;2023-04-25T09:19:21;10.80;99.90
17483;DHT22;8858;52.308;20.994;2023-04-25T09:22:12;10.70;99.90
17483;DHT22;8858;52.308;20.994;2023-04-25T09:24:41;10.60;99.90
17483;DHT22;8858;52.308;20.994;2023-04-25T09:27:11;10.70;99.90
17483;DHT22;8858;52.308;20.994;2023-04-25T09:29:41;10.80;99.90
17483;DHT22;8858;52.308;20.994;2023-04-25T09:32:16;10.80;99.90
17483;DHT22;8858;52.308;20.994;2023-04-25T09:34:51;10.80;99.90
17483;DHT22;8858;52.308;20.994;2023-04-25T09:37:21;10.90;99.90
17483;DHT22;8858;52.308;20.994;2023-04-25T09:40:05;10.80;99.90
17483;DHT22;8858;52.308;20.994;2023-04-25T09:42:48;10.80;99.90
17483;DHT22;8858;52.308;20.994;2023-04-25T09:45:18;10.80;99.90
17483;DHT22;8858;52.308;20.994;2023-04-25T09:47:50;10.60;99.90
17483;DHT22;8858;52.308;20.994;2023-04-25T09:50:31;10.60;99.90
17483;DHT22;8858;52.308;20.994;2023-04-25T09:53:06;10.70;99.90
17483;DHT22;8858;52.308;20.994;2023-04-25T09:55:53;10.70;99.90
17483;DHT22;8858;52.308;20.994;2023-04-25T09:58:23;10.80;99.90
17483;DHT22;8858;52.308;20.994;2023-04-25T10:00:53;10.80;99.90
17483;DHT22;8858;52.308;20.994;2023-04-25T10:03:38;10.70;99.90
17483;DHT22;8858;52.308;20.994;2023-04-25T10:06:19;10.70;99.90
17483;DHT22;8858;52.308;20.994;2023-04-25T10:08:51;10.70;99.90
17483;DHT22;8858;52.308;20.994;2023-04-25T10:11:24;10.50;99.90
17483;DHT22;8858;52.308;20.994;2023-04-25T10:13:55;10.50;99.90
17483;DHT22;8858;52.308;20.994;2023-04-25T10:16:24;10.50;99.90
17483;DHT22;8858;52.308;20.994;2023-04-25T10:18:55;10.50;99.90
17483;DHT22;8858;52.308;20.994;2023-04-25T10:21:24;10.50;99.90
17483;DHT22;8858;52.308;20.994;2023-04-25T10:23:54;10.40;99.90
17483;DHT22;8858;52.308;20.994;2023-04-25T10:26:23;10.40;99.90
17483;DHT22;8858;52.308;20.994;2023-04-25T10:28:55;10.50;99.90
17483;DHT22;8858;52.308;20.994;2023-04-25T10:31:23;10.40;99.90
17483;DHT22;8858;52.308;20.994;2023-04-25T10:33:53;10.50;99.90
17483;DHT22;8858;52.308;20.994;2023-04-25T10:36:26;10.50;99.90
17483;DHT22;8858;52.308;20.994;2023-04-25T10:39:03;10.40;99.90
17483;DHT22;8858;52.308;20.994;2023-04-25T10:41:46;10.40;99.90
17483;DHT22;8858;52.308;20.994;2023-04-25T10:44:17;10.40;99.90
17483;DHT22;8858;52.308;20.994;2023-04-25T10:46:46;10.40;99.90
17483;DHT22;8858;52.308;20.994;2023-04-25T10:49:31;10.40;99.90
17483;DHT22;8858;52.308;20.994;2023-04-25T10:52:13;10.50;99.90
17483;DHT22;8858;52.308;20.994;2023-04-25T10:54:46;10.50;99.90
17483;DHT22;8858;52.308;20.994;2023-04-25T10:57:29;10.50;99.90
17483;DHT22;8858;52.308;20.994;2023-04-25T10:59:59;10.50;99.90
17483;DHT22;8858;52.308;20.994;2023-04-25T11:02:28;10.50;99.90
17483;DHT22;8858;52.308;20.994;2023-04-25T11:04:59;10.60;99.90
17483;DHT22;8858;52.308;20.994;2023-04-25T11:07:34;10.60;99.90
17483;DHT22;8858;52.308;20.994;2023-04-25T11:10:06;10.60;99.90
17483;DHT22;8858;52.308;20.994;2023-04-25T11:12:37;10.70;99.90
17483;DHT22;8858;52.308;20.994;2023-04-25T11:15:07;10.60;99.90
17483;DHT22;8858;52.308;20.994;2023-04-25T11:17:35;10.70;99.90
17483;DHT22;8858;52.308;20.994;2023-04-25T11:20:06;10.80;99.90
17483;DHT22;8858;52.308;20.994;2023-04-25T11:22:41;10.80;99.90
17483;DHT22;8858;52.308;20.994;2023-04-25T11:25:13;10.90;99.90
17483;DHT22;8858;52.308;20.994;2023-04-25T11:27:50;10.90;99.90
17483;DHT22;8858;52.308;20.994;2023-04-25T11:30:19;10.90;99.90
17483;DHT22;8858;52.308;20.994;2023-04-25T11:32:48;11.00;99.90
17483;DHT22;8858;52.308;20.994;2023-04-25T11:35:21;11.00;99.90
17483;DHT22;8858;52.308;20.994;2023-04-25T11:37:52;11.10;99.90
17483;DHT22;8858;52.308;20.994;2023-04-25T11:40:20;10.90;99.90
17483;DHT22;8858;52.308;20.994;2023-04-25T11:42:48;10.90;99.90
17483;DHT22;8858;52.308;20.994;2023-04-25T11:45:20;11.10;99.90
17483;DHT22;8858;52.308;20.994;2023-04-25T11:47:50;11.20;99.90
17483;DHT22;8858;52.308;20.994;2023-04-25T11:50:29;11.30;99.90
17483;DHT22;8858;52.308;20.994;2023-04-25T11:52:57;11.20;99.90
17483;DHT22;8858;52.308;20.994;2023-04-25T11:55:26;11.20;99.90
17483;DHT22;8858;52.308;20.994;2023-04-25T11:57:59;11.20;99.90
17483;DHT22;8858;52.308;20.994;2023-04-25T12:00:28;11.40;99.90
17483;DHT22;8858;52.308;20.994;2023-04-25T12:02:57;11.30;99.90
17483;DHT22;8858;52.308;20.994;2023-04-25T12:05:29;11.30;99.90
17483;DHT22;8858;52.308;20.994;2023-04-25T12:08:10;11.30;99.90
17483;DHT22;8858;52.308;20.994;2023-04-25T12:10:41;11.30;99.90
17483;DHT22;8858;52.308;20.994;2023-04-25T12:13:21;11.30;99.90
17483;DHT22;8858;52.308;20.994;2023-04-25T12:15:50;11.20;99.90
17483;DHT22;8858;52.308;20.994;2023-04-25T12:18:22;11.20;99.90
17483;DHT22;8858;52.308;20.994;2023-04-25T12:20:58;11.30;99.90
17483;DHT22;8858;52.308;20.994;2023-04-25T12:23:28;11.30;99.90
17483;DHT22;8858;52.308;20.994;2023-04-25T12:25:57;11.20;99.90
17483;DHT22;8858;52.308;20.994;2023-04-25T12:28:25;11.20;99.90
17483;DHT22;8858;52.308;20.994;2023-04-25T12:30:57;11.30;99.90
17483;DHT22;8858;52.308;20.994;2023-04-25T12:33:27;11.30;99.90
17483;DHT22;8858;52.308;20.994;2023-04-25T12:35:57;11.20;99.90
17483;DHT22;8858;52.308;20.994;2023-04-25T12:38:27;11.20;99.90
17483;DHT22;8858;52.308;20.994;2023-04-25T12:40:57;11.10;99.90
17483;DHT22;8858;52.308;20.994;2023-04-25T12:43:26;11.20;99.90
17483;DHT22;8858;52.308;20.994;2023-04-25T12:45:57;11.20;99.90
17483;DHT22;8858;52.308;20.994;2023-04-25T12:48:31;11.20;99.90
17483;DHT22;8858;52.308;20.994;2023-04-25T12:51:01;11.10;99.90
17483;DHT22;8858;52.308;20.994;2023-04-25T12:53:29;11.20;99.90
17483;DHT22;8858;52.308;20.994;2023-04-25T12:56:01;11.20;99.90
17483;DHT22;8858;52.308;20.994;2023-04-25T12:58:30;11.20;99.90
17483;DHT22;8858;52.308;20.994;2023-04-25T13:01:01;11.20;99.90
17483;DHT22;8858;52.308;20.994;2023-04-25T13:03:29;11.20;99.90
17483;DHT22;8858;52.308;20.994;2023-04-25T13:05:58;11.00;99.90
17483;DHT22;8858;52.308;20.994;2023-04-25T13:08:27;11.00;99.90
17483;DHT22;8858;52.308;20.994;2023-04-25T13:10:55;11.10;99.90
17483;DHT22;8858;52.308;20.994;2023-04-25T13:13:27;11.10;99.90
17483;DHT22;8858;52.308;20.994;2023-04-25T13:15:55;11.10;99.90
17483;DHT22;8858;52.308;20.994;2023-04-25T13:18:23;11.10;99.90
17483;DHT22;8858;52.308;20.994;2023-04-25T13:20:57;11.10;99.90
17483;DHT22;8858;52.308;20.994;2023-04-25T13:23:28;11.00;99.90
17483;DHT22;8858;52.308;20.994;2023-04-25T13:25:57;11.10;99.90
17483;DHT22;8858;52.308;20.994;2023-04-25T13:28:27;11.20;99.90
17483;DHT22;8858;52.308;20.994;2023-04-25T13:30:55;11.40;99.90
17483;DHT22;8858;52.308;20.994;2023-04-25T13:33:24;11.40;99.90
17483;DHT22;8858;52.308;20.994;2023-04-25T13:35:57;11.40;99.90
17483;DHT22;8858;52.308;20.994;2023-04-25T13:38:26;11.30;99.90
17483;DHT22;8858;52.308;20.994;2023-04-25T13:40:54;11.30;99.90
17483;DHT22;8858;52.308;20.994;2023-04-25T13:43:22;11.30;99.90
17483;DHT22;8858;52.308;20.994;2023-04-25T13:45:52;11.50;99.90
17483;DHT22;8858;52.308;20.994;2023-04-25T13:48:20;11.30;99.90
17483;DHT22;8858;52.308;20.994;2023-04-25T13:50:49;11.30;99.90
17483;DHT22;8858;52.308;20.994;2023-04-25T13:53:17;11.20;99.90
17483;DHT22;8858;52.308;20.994;2023-04-25T13:55:47;11.30;99.90
17483;DHT22;8858;52.308;20.994;2023-04-25T13:58:19;11.30;99.90
17483;DHT22;8858;52.308;20.994;2023-04-25T14:00:47;11.30;99.90
17483;DHT22;8858;52.308;20.994;2023-04-25T14:03:17;11.40;99.90
17483;DHT22;8858;52.308;20.994;2023-04-25T14:05:45;11.40;99.90
17483;DHT22;8858;52.308;20.994;2023-04-25T14:08:13;11.40;99.90
17483;DHT22;8858;52.308;20.994;2023-04-25T14:10:41;11.40;99.90
17483;DHT22;8858;52.308;20.994;2023-04-25T14:13:11;11.50;99.90
17483;DHT22;8858;52.308;20.994;2023-04-25T14:15:39;11.70;99.90
17483;DHT22;8858;52.308;20.994;2023-04-25T14:18:07;11.60;99.90
17483;DHT22;8858;52.308;20.994;2023-04-25T14:20:35;11.60;99.90
17483;DHT22;8858;52.308;20.994;2023-04-25T14:23:05;11.60;99.90
17483;DHT22;8858;52.308;20.994;2023-04-25T14:25:34;11.70;99.90
17483;DHT22;8858;52.308;20.994;2023-04-25T14:28:03;11.60;99.90
17483;DHT22;8858;52.308;20.994;2023-04-25T14:30:33;11.60;99.90
17483;DHT22;8858;52.308;20.994;2023-04-25T14:33:01;11.60;99.90
17483;DHT22;8858;52.308;20.994;2023-04-25T14:35:29;11.50;99.90
17483;DHT22;8858;52.308;20.994;2023-04-25T14:37:57;11.60;99.90
17483;DHT22;8858;52.308;20.994;2023-04-25T14:40:27;11.80;99.90
17483;DHT22;8858;52.308;20.994;2023-04-25T14:42:55;11.80;99.90
17483;DHT22;8858;52.308;20.994;2023-04-25T14:45:23;11.80;99.90
17483;DHT22;8858;52.308;20.994;2023-04-25T14:47:52;11.70;99.90
17483;DHT22;8858;52.308;20.994;2023-04-25T14:50:24;11.50;99.90
17483;DHT22;8858;52.308;20.994;2023-04-25T14:52:55;11.20;99.90
17483;DHT22;8858;52.308;20.994;2023-04-25T14:55:26;11.10;99.90
17483;DHT22;8858;52.308;20.994;2023-04-25T14:58:00;11.10;99.90
17483;DHT22;8858;52.308;20.994;2023-04-25T15:00:30;11.20;99.90
17483;DHT22;8858;52.308;20.994;2023-04-25T15:03:00;11.00;99.90
17483;DHT22;8858;52.308;20.994;2023-04-25T15:05:28;10.90;99.90
17483;DHT22;8858;52.308;20.994;2023-04-25T15:07:56;10.80;99.90
17483;DHT22;8858;52.308;20.994;2023-04-25T15:10:24;10.90;99.90
17483;DHT22;8858;52.308;20.994;2023-04-25T15:12:54;10.80;99.90
17483;DHT22;8858;52.308;20.994;2023-04-25T15:15:22;10.80;99.90
17483;DHT22;8858;52.308;20.994;2023-04-25T15:17:53;10.70;99.90
17483;DHT22;8858;52.308;20.994;2023-04-25T15:20:28;10.70;99.90
17483;DHT22;8858;52.308;20.994;2023-04-25T15:22:57;10.70;99.90
17483;DHT22;8858;52.308;20.994;2023-04-25T15:25:27;10.70;99.90
17483;DHT22;8858;52.308;20.994;2023-04-25T15:27:56;10.60;99.90
17483;DHT22;8858;52.308;20.994;2023-04-25T15:30:24;10.60;99.90
17483;DHT22;8858;52.308;20.994;2023-04-25T15:32:56;10.80;99.90
17483;DHT22;8858;52.308;20.994;2023-04-25T15:35:24;10.70;99.90
17483;DHT22;8858;52.308;20.994;2023-04-25T15:37:54;10.70;99.90
17483;DHT22;8858;52.308;20.994;2023-04-25T15:40:22;10.60;99.90
17483;DHT22;8858;52.308;20.994;2023-04-25T15:42:51;10.60;99.90
17483;DHT22;8858;52.308;20.994;2023-04-25T15:45:21;10.60;99.90
17483;DHT22;8858;52.308;20.994;2023-04-25T15:47:54;10.60;99.90
17483;DHT22;8858;52.308;20.994;2023-04-25T15:50:23;10.60;99.90
17483;DHT22;8858;52.308;20.994;2023-04-25T15:52:53;10.50;99.90
17483;DHT22;8858;52.308;20.994;2023-04-25T15:55:21;10.40;99.90
17483;DHT22;8858;52.308;20.994;2023-04-25T15:57:52;10.40;99.90
17483;DHT22;8858;52.308;20.994;2023-04-25T16:00:21;10.40;99.90